Startpagina
METAR-TAF:

METAR-TAF

Vliegvelden :

Resolute, Nunavut, Canada

breedte: 74-43N, lengte: 094-59W, hoogte: 67 m

Actueel weer

Dit bericht is 49 minuten geleden gemaakt, om 05:00 UTC
Wind 5 kt uit het noordwesten
Temperatuur -16°C
Vochtigheid 78%
Druk 1020 hPa
Zicht: 24.1 km
Geheel bewolkt op 4400 ft
lichte sneeuw

METAR: CYRB 220500Z 31005KT 15SM -SN OVC044 M16/M19 A3011 RMK SC8 CIG ESTD SLP208

Tijdstip: 00:49 (05:49 UTC)

Verwachting

Dit bericht is 6 uur en het 11 minuten geleden gemaakt, om 23:38 UTC
Verwachting geldig van 22 om 00 UTC tot 22 om 24 UTC
Wind 6 kt uit het noordnoordwesten
Zicht: 10 km
Verspreide wolken op 2000 ft
Gebroken wolken op 4000 ft
Tijdelijke
van 22 om 00 UTC tot 22 om 24 UTC
Zicht: 8.0 km
Gebroken wolken op 2000 ft
Geheel bewolkt op 3000 ft
lichte sneeuw
Wijzigt naar
van 22 om 07 UTC tot 22 om 09 UTC
Wind 12 kt uit het noordwesten

TAF: CYRB 212338Z 2200/2224 33006KT P6SM SCT020 BKN040 TEMPO 2200/2224 5SM -SN BKN020 OVC030 BECMG 2207/2209 32012KT RMK NXT FCST BY 220600Z

Waarnemingen en weersverwachtingen van meer dan 4000 vliegvelden (METAR en TAF).

De beschikbare stations zijn de gele en rode punten op de kaart.

Ga met uw muis naar het station om de naam te zien.

Klik dan om waarnemingen en weersverwachtingen te zien.

kaart wijzigen: klik op de groene knoppen met een zwart kruis om in te zoomen, op de groene knop met een streepje om uit te zoomen of op de groene pijlen voor aangrenzende kaarten.


METAR-TAF: